sensor_id;sensor_type;location;lat;lon;timestamp;P1;durP1;ratioP1;P2;durP2;ratioP2
5608;SDS011;2826;51.354;9.588;2022-12-11T00:01:45;26.63;;;12.67;;
5608;SDS011;2826;51.354;9.588;2022-12-11T00:04:12;32.27;;;15.20;;
5608;SDS011;2826;51.354;9.588;2022-12-11T00:06:39;29.20;;;14.47;;
5608;SDS011;2826;51.354;9.588;2022-12-11T00:09:06;29.43;;;13.53;;
5608;SDS011;2826;51.354;9.588;2022-12-11T00:11:33;29.23;;;14.80;;
5608;SDS011;2826;51.354;9.588;2022-12-11T00:14:02;31.97;;;14.97;;
5608;SDS011;2826;51.354;9.588;2022-12-11T00:16:29;31.00;;;13.60;;
5608;SDS011;2826;51.354;9.588;2022-12-11T00:18:56;29.07;;;14.67;;
5608;SDS011;2826;51.354;9.588;2022-12-11T00:21:23;31.30;;;15.03;;
5608;SDS011;2826;51.354;9.588;2022-12-11T00:23:50;30.47;;;14.73;;
5608;SDS011;2826;51.354;9.588;2022-12-11T00:26:17;29.83;;;15.40;;
5608;SDS011;2826;51.354;9.588;2022-12-11T00:28:44;30.03;;;14.40;;
5608;SDS011;2826;51.354;9.588;2022-12-11T00:31:14;30.83;;;15.37;;
5608;SDS011;2826;51.354;9.588;2022-12-11T00:33:43;30.80;;;15.30;;
5608;SDS011;2826;51.354;9.588;2022-12-11T00:36:14;35.00;;;16.87;;
5608;SDS011;2826;51.354;9.588;2022-12-11T00:38:42;31.20;;;14.77;;
5608;SDS011;2826;51.354;9.588;2022-12-11T00:41:09;30.53;;;16.40;;
5608;SDS011;2826;51.354;9.588;2022-12-11T00:43:37;36.60;;;16.40;;
5608;SDS011;2826;51.354;9.588;2022-12-11T00:46:04;32.67;;;17.07;;
5608;SDS011;2826;51.354;9.588;2022-12-11T00:48:32;36.90;;;15.53;;
5608;SDS011;2826;51.354;9.588;2022-12-11T00:50:59;36.90;;;14.57;;
5608;SDS011;2826;51.354;9.588;2022-12-11T00:53:26;32.17;;;15.23;;
5608;SDS011;2826;51.354;9.588;2022-12-11T00:55:54;27.33;;;14.90;;
5608;SDS011;2826;51.354;9.588;2022-12-11T00:58:21;32.50;;;15.17;;
5608;SDS011;2826;51.354;9.588;2022-12-11T01:00:50;32.77;;;14.83;;
5608;SDS011;2826;51.354;9.588;2022-12-11T01:03:17;31.50;;;15.47;;
5608;SDS011;2826;51.354;9.588;2022-12-11T01:05:53;31.30;;;15.93;;
5608;SDS011;2826;51.354;9.588;2022-12-11T01:08:20;33.53;;;15.47;;
5608;SDS011;2826;51.354;9.588;2022-12-11T01:10:47;37.70;;;16.27;;
5608;SDS011;2826;51.354;9.588;2022-12-11T01:13:13;24.50;;;13.33;;
5608;SDS011;2826;51.354;9.588;2022-12-11T01:15:42;30.70;;;15.20;;
5608;SDS011;2826;51.354;9.588;2022-12-11T01:18:11;31.53;;;14.40;;
5608;SDS011;2826;51.354;9.588;2022-12-11T01:20:40;31.20;;;14.10;;
5608;SDS011;2826;51.354;9.588;2022-12-11T01:23:10;28.30;;;14.40;;
5608;SDS011;2826;51.354;9.588;2022-12-11T01:25:38;32.63;;;14.80;;
5608;SDS011;2826;51.354;9.588;2022-12-11T01:28:06;28.90;;;14.10;;
5608;SDS011;2826;51.354;9.588;2022-12-11T01:30:52;28.93;;;13.53;;
5608;SDS011;2826;51.354;9.588;2022-12-11T01:33:19;29.10;;;13.93;;
5608;SDS011;2826;51.354;9.588;2022-12-11T01:35:46;29.33;;;14.43;;
5608;SDS011;2826;51.354;9.588;2022-12-11T01:38:14;23.83;;;13.07;;
5608;SDS011;2826;51.354;9.588;2022-12-11T01:40:44;27.20;;;13.30;;
5608;SDS011;2826;51.354;9.588;2022-12-11T01:43:12;30.87;;;13.67;;
5608;SDS011;2826;51.354;9.588;2022-12-11T01:45:39;27.00;;;14.30;;
5608;SDS011;2826;51.354;9.588;2022-12-11T01:48:10;28.63;;;13.60;;
5608;SDS011;2826;51.354;9.588;2022-12-11T01:50:38;27.13;;;14.20;;
5608;SDS011;2826;51.354;9.588;2022-12-11T01:53:09;34.17;;;15.73;;
5608;SDS011;2826;51.354;9.588;2022-12-11T01:55:42;40.20;;;15.40;;
5608;SDS011;2826;51.354;9.588;2022-12-11T01:58:10;28.60;;;13.63;;
5608;SDS011;2826;51.354;9.588;2022-12-11T02:00:38;29.53;;;14.97;;
5608;SDS011;2826;51.354;9.588;2022-12-11T02:03:05;31.33;;;14.40;;
5608;SDS011;2826;51.354;9.588;2022-12-11T02:05:32;30.00;;;14.67;;
5608;SDS011;2826;51.354;9.588;2022-12-11T02:07:59;36.33;;;15.90;;
5608;SDS011;2826;51.354;9.588;2022-12-11T02:10:31;33.80;;;15.87;;
5608;SDS011;2826;51.354;9.588;2022-12-11T02:13:12;33.00;;;13.73;;
5608;SDS011;2826;51.354;9.588;2022-12-11T02:15:43;36.30;;;13.90;;
5608;SDS011;2826;51.354;9.588;2022-12-11T02:18:18;34.47;;;13.97;;
5608;SDS011;2826;51.354;9.588;2022-12-11T02:20:53;28.80;;;14.13;;
5608;SDS011;2826;51.354;9.588;2022-12-11T02:26:20;36.80;;;15.23;;
5608;SDS011;2826;51.354;9.588;2022-12-11T02:29:11;37.33;;;15.93;;
5608;SDS011;2826;51.354;9.588;2022-12-11T02:31:43;31.60;;;15.70;;
5608;SDS011;2826;51.354;9.588;2022-12-11T02:34:17;31.77;;;15.00;;
5608;SDS011;2826;51.354;9.588;2022-12-11T02:36:49;30.83;;;14.43;;
5608;SDS011;2826;51.354;9.588;2022-12-11T02:39:18;34.63;;;15.63;;
5608;SDS011;2826;51.354;9.588;2022-12-11T02:41:49;30.77;;;14.07;;
5608;SDS011;2826;51.354;9.588;2022-12-11T02:44:19;30.63;;;14.50;;
5608;SDS011;2826;51.354;9.588;2022-12-11T02:46:50;34.20;;;15.77;;
5608;SDS011;2826;51.354;9.588;2022-12-11T02:49:18;32.33;;;15.90;;
5608;SDS011;2826;51.354;9.588;2022-12-11T02:51:46;36.50;;;16.93;;
5608;SDS011;2826;51.354;9.588;2022-12-11T02:54:15;33.90;;;15.90;;
5608;SDS011;2826;51.354;9.588;2022-12-11T02:56:45;34.50;;;15.43;;
5608;SDS011;2826;51.354;9.588;2022-12-11T02:59:19;31.63;;;15.23;;
5608;SDS011;2826;51.354;9.588;2022-12-11T03:01:51;31.07;;;16.50;;
5608;SDS011;2826;51.354;9.588;2022-12-11T03:04:18;29.10;;;14.63;;
5608;SDS011;2826;51.354;9.588;2022-12-11T03:06:50;34.53;;;14.73;;
5608;SDS011;2826;51.354;9.588;2022-12-11T03:09:20;35.90;;;15.40;;
5608;SDS011;2826;51.354;9.588;2022-12-11T03:11:47;31.73;;;16.77;;
5608;SDS011;2826;51.354;9.588;2022-12-11T03:14:14;32.87;;;15.90;;
5608;SDS011;2826;51.354;9.588;2022-12-11T03:16:44;37.00;;;16.13;;
5608;SDS011;2826;51.354;9.588;2022-12-11T03:19:21;37.43;;;16.67;;
5608;SDS011;2826;51.354;9.588;2022-12-11T03:21:53;32.73;;;16.43;;
5608;SDS011;2826;51.354;9.588;2022-12-11T03:24:26;32.47;;;15.00;;
5608;SDS011;2826;51.354;9.588;2022-12-11T03:26:57;29.87;;;15.67;;
5608;SDS011;2826;51.354;9.588;2022-12-11T03:29:28;34.53;;;15.90;;
5608;SDS011;2826;51.354;9.588;2022-12-11T03:32:02;31.83;;;16.97;;
5608;SDS011;2826;51.354;9.588;2022-12-11T03:34:37;28.53;;;14.77;;
5608;SDS011;2826;51.354;9.588;2022-12-11T03:37:09;30.03;;;15.70;;
5608;SDS011;2826;51.354;9.588;2022-12-11T03:39:39;32.03;;;15.67;;
5608;SDS011;2826;51.354;9.588;2022-12-11T03:42:12;32.73;;;15.00;;
5608;SDS011;2826;51.354;9.588;2022-12-11T03:44:41;32.87;;;16.50;;
5608;SDS011;2826;51.354;9.588;2022-12-11T03:47:13;29.97;;;14.20;;
5608;SDS011;2826;51.354;9.588;2022-12-11T03:49:44;29.50;;;14.10;;
5608;SDS011;2826;51.354;9.588;2022-12-11T03:52:12;28.97;;;14.60;;
5608;SDS011;2826;51.354;9.588;2022-12-11T03:54:41;31.80;;;15.50;;
5608;SDS011;2826;51.354;9.588;2022-12-11T03:57:12;31.70;;;15.27;;
5608;SDS011;2826;51.354;9.588;2022-12-11T03:59:42;26.93;;;14.20;;
5608;SDS011;2826;51.354;9.588;2022-12-11T04:02:09;27.20;;;13.83;;
5608;SDS011;2826;51.354;9.588;2022-12-11T04:04:37;29.43;;;15.90;;
5608;SDS011;2826;51.354;9.588;2022-12-11T04:07:06;41.43;;;15.43;;
5608;SDS011;2826;51.354;9.588;2022-12-11T04:09:34;28.43;;;14.83;;
5608;SDS011;2826;51.354;9.588;2022-12-11T04:12:01;36.40;;;15.27;;
5608;SDS011;2826;51.354;9.588;2022-12-11T04:14:28;31.53;;;14.77;;
5608;SDS011;2826;51.354;9.588;2022-12-11T04:17:12;30.70;;;13.83;;
5608;SDS011;2826;51.354;9.588;2022-12-11T04:20:01;30.17;;;13.70;;
5608;SDS011;2826;51.354;9.588;2022-12-11T04:22:54;32.53;;;15.53;;
5608;SDS011;2826;51.354;9.588;2022-12-11T04:25:38;33.13;;;16.40;;
5608;SDS011;2826;51.354;9.588;2022-12-11T04:28:05;34.10;;;16.53;;
5608;SDS011;2826;51.354;9.588;2022-12-11T04:30:33;29.03;;;15.30;;
5608;SDS011;2826;51.354;9.588;2022-12-11T04:33:00;33.17;;;15.80;;
5608;SDS011;2826;51.354;9.588;2022-12-11T04:35:29;29.80;;;14.97;;
5608;SDS011;2826;51.354;9.588;2022-12-11T04:37:56;30.77;;;15.10;;
5608;SDS011;2826;51.354;9.588;2022-12-11T04:40:23;36.07;;;16.90;;
5608;SDS011;2826;51.354;9.588;2022-12-11T04:42:49;35.37;;;17.53;;
5608;SDS011;2826;51.354;9.588;2022-12-11T04:45:16;33.67;;;15.37;;
5608;SDS011;2826;51.354;9.588;2022-12-11T04:47:43;37.83;;;15.67;;
5608;SDS011;2826;51.354;9.588;2022-12-11T04:50:11;37.37;;;16.03;;
5608;SDS011;2826;51.354;9.588;2022-12-11T04:52:40;33.90;;;17.30;;
5608;SDS011;2826;51.354;9.588;2022-12-11T04:55:07;29.20;;;14.50;;
5608;SDS011;2826;51.354;9.588;2022-12-11T04:57:35;30.80;;;15.50;;
5608;SDS011;2826;51.354;9.588;2022-12-11T05:00:02;38.87;;;16.63;;
5608;SDS011;2826;51.354;9.588;2022-12-11T05:02:32;35.77;;;16.83;;
5608;SDS011;2826;51.354;9.588;2022-12-11T05:05:00;36.87;;;16.53;;
5608;SDS011;2826;51.354;9.588;2022-12-11T05:07:27;36.87;;;16.00;;
5608;SDS011;2826;51.354;9.588;2022-12-11T05:09:55;42.37;;;17.13;;
5608;SDS011;2826;51.354;9.588;2022-12-11T05:12:22;32.50;;;15.13;;
5608;SDS011;2826;51.354;9.588;2022-12-11T05:14:50;28.63;;;14.23;;
5608;SDS011;2826;51.354;9.588;2022-12-11T05:17:17;34.53;;;16.17;;
5608;SDS011;2826;51.354;9.588;2022-12-11T05:19:45;30.97;;;15.33;;
5608;SDS011;2826;51.354;9.588;2022-12-11T05:22:13;32.27;;;15.27;;
5608;SDS011;2826;51.354;9.588;2022-12-11T05:24:40;32.53;;;15.77;;
5608;SDS011;2826;51.354;9.588;2022-12-11T05:27:08;41.07;;;17.80;;
5608;SDS011;2826;51.354;9.588;2022-12-11T05:29:35;39.43;;;17.17;;
5608;SDS011;2826;51.354;9.588;2022-12-11T05:32:02;44.50;;;18.37;;
5608;SDS011;2826;51.354;9.588;2022-12-11T05:34:29;38.93;;;16.20;;
5608;SDS011;2826;51.354;9.588;2022-12-11T05:36:57;34.67;;;17.00;;
5608;SDS011;2826;51.354;9.588;2022-12-11T05:39:24;36.83;;;16.77;;
5608;SDS011;2826;51.354;9.588;2022-12-11T05:41:50;35.80;;;16.60;;
5608;SDS011;2826;51.354;9.588;2022-12-11T05:44:19;32.80;;;16.40;;
5608;SDS011;2826;51.354;9.588;2022-12-11T05:46:45;38.83;;;16.50;;
5608;SDS011;2826;51.354;9.588;2022-12-11T05:49:12;38.00;;;17.20;;
5608;SDS011;2826;51.354;9.588;2022-12-11T05:51:40;37.43;;;17.97;;
5608;SDS011;2826;51.354;9.588;2022-12-11T05:54:08;38.40;;;16.60;;
5608;SDS011;2826;51.354;9.588;2022-12-11T05:56:35;34.87;;;16.90;;
5608;SDS011;2826;51.354;9.588;2022-12-11T05:59:02;35.33;;;16.47;;
5608;SDS011;2826;51.354;9.588;2022-12-11T06:01:32;39.80;;;17.13;;
5608;SDS011;2826;51.354;9.588;2022-12-11T06:04:00;33.53;;;16.37;;
5608;SDS011;2826;51.354;9.588;2022-12-11T06:06:28;38.00;;;18.27;;
5608;SDS011;2826;51.354;9.588;2022-12-11T06:08:55;32.10;;;17.17;;
5608;SDS011;2826;51.354;9.588;2022-12-11T06:11:25;36.23;;;17.33;;
5608;SDS011;2826;51.354;9.588;2022-12-11T06:13:53;41.67;;;17.67;;
5608;SDS011;2826;51.354;9.588;2022-12-11T06:16:21;38.13;;;16.43;;
5608;SDS011;2826;51.354;9.588;2022-12-11T06:18:49;37.93;;;17.03;;
5608;SDS011;2826;51.354;9.588;2022-12-11T06:21:17;33.33;;;16.30;;
5608;SDS011;2826;51.354;9.588;2022-12-11T06:23:46;36.03;;;15.80;;
5608;SDS011;2826;51.354;9.588;2022-12-11T06:26:14;40.73;;;16.23;;
5608;SDS011;2826;51.354;9.588;2022-12-11T06:28:42;36.70;;;17.40;;
5608;SDS011;2826;51.354;9.588;2022-12-11T06:31:09;32.80;;;16.20;;
5608;SDS011;2826;51.354;9.588;2022-12-11T06:33:35;30.70;;;14.60;;
5608;SDS011;2826;51.354;9.588;2022-12-11T06:36:05;34.37;;;16.57;;
5608;SDS011;2826;51.354;9.588;2022-12-11T06:38:34;35.97;;;15.83;;
5608;SDS011;2826;51.354;9.588;2022-12-11T06:41:01;37.73;;;17.60;;
5608;SDS011;2826;51.354;9.588;2022-12-11T06:43:30;35.17;;;17.13;;
5608;SDS011;2826;51.354;9.588;2022-12-11T06:45:57;37.80;;;18.70;;
5608;SDS011;2826;51.354;9.588;2022-12-11T06:48:24;38.13;;;16.63;;
5608;SDS011;2826;51.354;9.588;2022-12-11T06:50:51;32.67;;;16.70;;
5608;SDS011;2826;51.354;9.588;2022-12-11T06:53:19;41.00;;;17.63;;
5608;SDS011;2826;51.354;9.588;2022-12-11T06:55:46;42.03;;;18.77;;
5608;SDS011;2826;51.354;9.588;2022-12-11T06:58:13;36.57;;;16.03;;
5608;SDS011;2826;51.354;9.588;2022-12-11T07:00:40;38.33;;;17.10;;
5608;SDS011;2826;51.354;9.588;2022-12-11T07:03:08;35.20;;;16.97;;
5608;SDS011;2826;51.354;9.588;2022-12-11T07:05:35;36.97;;;16.07;;
5608;SDS011;2826;51.354;9.588;2022-12-11T07:08:02;36.00;;;16.13;;
5608;SDS011;2826;51.354;9.588;2022-12-11T07:10:31;38.30;;;18.40;;
5608;SDS011;2826;51.354;9.588;2022-12-11T07:12:57;37.03;;;16.93;;
5608;SDS011;2826;51.354;9.588;2022-12-11T07:15:24;31.50;;;16.10;;
5608;SDS011;2826;51.354;9.588;2022-12-11T07:17:51;30.93;;;15.60;;
5608;SDS011;2826;51.354;9.588;2022-12-11T07:20:18;35.17;;;16.90;;
5608;SDS011;2826;51.354;9.588;2022-12-11T07:22:45;36.57;;;17.90;;
5608;SDS011;2826;51.354;9.588;2022-12-11T07:25:12;39.40;;;17.73;;
5608;SDS011;2826;51.354;9.588;2022-12-11T07:27:41;31.77;;;16.40;;
5608;SDS011;2826;51.354;9.588;2022-12-11T07:30:08;41.67;;;18.27;;
5608;SDS011;2826;51.354;9.588;2022-12-11T07:32:36;37.70;;;15.53;;
5608;SDS011;2826;51.354;9.588;2022-12-11T07:35:03;39.50;;;15.90;;
5608;SDS011;2826;51.354;9.588;2022-12-11T07:37:31;29.37;;;15.00;;
5608;SDS011;2826;51.354;9.588;2022-12-11T07:39:58;33.67;;;15.97;;
5608;SDS011;2826;51.354;9.588;2022-12-11T07:42:24;33.33;;;17.33;;
5608;SDS011;2826;51.354;9.588;2022-12-11T07:44:53;36.27;;;17.73;;
5608;SDS011;2826;51.354;9.588;2022-12-11T07:47:20;37.30;;;18.40;;
5608;SDS011;2826;51.354;9.588;2022-12-11T07:49:47;44.40;;;18.37;;
5608;SDS011;2826;51.354;9.588;2022-12-11T07:52:14;39.77;;;18.40;;
5608;SDS011;2826;51.354;9.588;2022-12-11T07:54:40;32.00;;;15.67;;
5608;SDS011;2826;51.354;9.588;2022-12-11T07:57:07;31.77;;;15.10;;
5608;SDS011;2826;51.354;9.588;2022-12-11T07:59:34;31.83;;;15.80;;
5608;SDS011;2826;51.354;9.588;2022-12-11T08:02:02;35.03;;;17.23;;
5608;SDS011;2826;51.354;9.588;2022-12-11T08:04:30;34.40;;;16.47;;
5608;SDS011;2826;51.354;9.588;2022-12-11T08:06:57;31.77;;;16.30;;
5608;SDS011;2826;51.354;9.588;2022-12-11T08:09:24;34.90;;;15.20;;
5608;SDS011;2826;51.354;9.588;2022-12-11T08:11:51;29.27;;;15.20;;
5608;SDS011;2826;51.354;9.588;2022-12-11T08:14:18;38.03;;;17.70;;
5608;SDS011;2826;51.354;9.588;2022-12-11T08:16:45;34.67;;;17.47;;
5608;SDS011;2826;51.354;9.588;2022-12-11T08:19:13;41.03;;;20.33;;
5608;SDS011;2826;51.354;9.588;2022-12-11T08:21:41;36.30;;;16.20;;
5608;SDS011;2826;51.354;9.588;2022-12-11T08:24:07;33.10;;;16.93;;
5608;SDS011;2826;51.354;9.588;2022-12-11T08:26:35;31.57;;;15.50;;
5608;SDS011;2826;51.354;9.588;2022-12-11T08:29:02;33.60;;;16.40;;
5608;SDS011;2826;51.354;9.588;2022-12-11T08:31:31;31.37;;;16.23;;
5608;SDS011;2826;51.354;9.588;2022-12-11T08:33:58;37.40;;;18.20;;
5608;SDS011;2826;51.354;9.588;2022-12-11T08:36:27;41.10;;;17.37;;
5608;SDS011;2826;51.354;9.588;2022-12-11T08:38:55;34.80;;;17.87;;
5608;SDS011;2826;51.354;9.588;2022-12-11T08:41:23;35.50;;;16.43;;
5608;SDS011;2826;51.354;9.588;2022-12-11T08:43:52;33.67;;;15.50;;
5608;SDS011;2826;51.354;9.588;2022-12-11T08:46:20;31.40;;;16.33;;
5608;SDS011;2826;51.354;9.588;2022-12-11T08:48:48;37.80;;;15.27;;
5608;SDS011;2826;51.354;9.588;2022-12-11T08:51:16;36.30;;;16.23;;
5608;SDS011;2826;51.354;9.588;2022-12-11T08:53:48;37.70;;;17.20;;
5608;SDS011;2826;51.354;9.588;2022-12-11T08:56:16;36.50;;;17.23;;
5608;SDS011;2826;51.354;9.588;2022-12-11T08:58:44;38.33;;;17.00;;
5608;SDS011;2826;51.354;9.588;2022-12-11T09:01:12;39.63;;;18.17;;
5608;SDS011;2826;51.354;9.588;2022-12-11T09:03:41;36.97;;;16.83;;
5608;SDS011;2826;51.354;9.588;2022-12-11T09:06:09;32.77;;;16.03;;
5608;SDS011;2826;51.354;9.588;2022-12-11T09:08:38;38.73;;;17.50;;
5608;SDS011;2826;51.354;9.588;2022-12-11T09:11:07;37.37;;;16.50;;
5608;SDS011;2826;51.354;9.588;2022-12-11T09:13:35;37.40;;;15.97;;
5608;SDS011;2826;51.354;9.588;2022-12-11T09:16:03;44.47;;;19.07;;
5608;SDS011;2826;51.354;9.588;2022-12-11T09:18:30;33.93;;;15.73;;
5608;SDS011;2826;51.354;9.588;2022-12-11T09:20:58;36.00;;;16.40;;
5608;SDS011;2826;51.354;9.588;2022-12-11T09:23:26;36.03;;;17.47;;
5608;SDS011;2826;51.354;9.588;2022-12-11T09:25:53;46.33;;;19.00;;
5608;SDS011;2826;51.354;9.588;2022-12-11T09:28:21;34.07;;;17.10;;
5608;SDS011;2826;51.354;9.588;2022-12-11T09:30:49;34.40;;;16.73;;
5608;SDS011;2826;51.354;9.588;2022-12-11T09:33:16;37.27;;;16.07;;
5608;SDS011;2826;51.354;9.588;2022-12-11T09:35:43;33.50;;;15.87;;
5608;SDS011;2826;51.354;9.588;2022-12-11T09:38:10;43.17;;;20.27;;
5608;SDS011;2826;51.354;9.588;2022-12-11T09:40:40;36.07;;;17.60;;
5608;SDS011;2826;51.354;9.588;2022-12-11T09:43:10;36.40;;;16.97;;
5608;SDS011;2826;51.354;9.588;2022-12-11T09:45:49;37.57;;;17.10;;
5608;SDS011;2826;51.354;9.588;2022-12-11T09:48:17;35.50;;;16.23;;
5608;SDS011;2826;51.354;9.588;2022-12-11T09:50:48;41.37;;;18.53;;
5608;SDS011;2826;51.354;9.588;2022-12-11T09:53:20;43.33;;;17.07;;
5608;SDS011;2826;51.354;9.588;2022-12-11T09:55:53;33.97;;;16.90;;
5608;SDS011;2826;51.354;9.588;2022-12-11T09:58:29;40.05;;;18.85;;
5608;SDS011;2826;51.354;9.588;2022-12-11T10:01:07;39.93;;;18.07;;
5608;SDS011;2826;51.354;9.588;2022-12-11T10:03:50;40.57;;;18.20;;
5608;SDS011;2826;51.354;9.588;2022-12-11T10:06:30;43.50;;;18.73;;
5608;SDS011;2826;51.354;9.588;2022-12-11T10:09:02;44.70;;;20.23;;
5608;SDS011;2826;51.354;9.588;2022-12-11T10:14:37;38.50;;;17.97;;
5608;SDS011;2826;51.354;9.588;2022-12-11T10:17:14;54.53;;;23.43;;
5608;SDS011;2826;51.354;9.588;2022-12-11T10:19:45;50.80;;;22.87;;
5608;SDS011;2826;51.354;9.588;2022-12-11T10:22:18;49.97;;;21.97;;
5608;SDS011;2826;51.354;9.588;2022-12-11T10:24:51;42.37;;;20.57;;
5608;SDS011;2826;51.354;9.588;2022-12-11T10:27:23;51.30;;;21.40;;
5608;SDS011;2826;51.354;9.588;2022-12-11T10:29:58;48.50;;;19.53;;
5608;SDS011;2826;51.354;9.588;2022-12-11T10:32:34;38.20;;;17.90;;
5608;SDS011;2826;51.354;9.588;2022-12-11T10:35:09;36.10;;;17.80;;
5608;SDS011;2826;51.354;9.588;2022-12-11T10:37:44;39.00;;;17.87;;
5608;SDS011;2826;51.354;9.588;2022-12-11T10:40:11;36.40;;;18.17;;
5608;SDS011;2826;51.354;9.588;2022-12-11T10:42:38;37.30;;;17.70;;
5608;SDS011;2826;51.354;9.588;2022-12-11T10:45:06;40.83;;;19.77;;
5608;SDS011;2826;51.354;9.588;2022-12-11T10:47:42;42.80;;;18.90;;
5608;SDS011;2826;51.354;9.588;2022-12-11T10:50:20;40.20;;;18.50;;
5608;SDS011;2826;51.354;9.588;2022-12-11T10:52:49;45.23;;;19.27;;
5608;SDS011;2826;51.354;9.588;2022-12-11T10:55:18;44.13;;;19.57;;
5608;SDS011;2826;51.354;9.588;2022-12-11T10:57:53;42.23;;;19.13;;
5608;SDS011;2826;51.354;9.588;2022-12-11T11:00:28;49.07;;;20.47;;
5608;SDS011;2826;51.354;9.588;2022-12-11T11:02:59;43.83;;;18.63;;
5608;SDS011;2826;51.354;9.588;2022-12-11T11:05:28;44.83;;;18.48;;
5608;SDS011;2826;51.354;9.588;2022-12-11T11:08:10;52.37;;;20.77;;
5608;SDS011;2826;51.354;9.588;2022-12-11T11:10:48;39.90;;;18.63;;
5608;SDS011;2826;51.354;9.588;2022-12-11T11:13:16;39.10;;;19.20;;
5608;SDS011;2826;51.354;9.588;2022-12-11T11:15:43;45.77;;;19.77;;
5608;SDS011;2826;51.354;9.588;2022-12-11T11:18:15;54.47;;;22.20;;
5608;SDS011;2826;51.354;9.588;2022-12-11T11:20:49;48.97;;;21.97;;
5608;SDS011;2826;51.354;9.588;2022-12-11T11:23:17;47.40;;;21.07;;
5608;SDS011;2826;51.354;9.588;2022-12-11T11:25:49;41.60;;;18.33;;
5608;SDS011;2826;51.354;9.588;2022-12-11T11:28:19;38.90;;;18.60;;
5608;SDS011;2826;51.354;9.588;2022-12-11T11:30:59;39.63;;;18.10;;
5608;SDS011;2826;51.354;9.588;2022-12-11T11:33:30;43.30;;;20.30;;
5608;SDS011;2826;51.354;9.588;2022-12-11T11:36:00;46.70;;;20.33;;
5608;SDS011;2826;51.354;9.588;2022-12-11T11:38:33;42.63;;;19.33;;
5608;SDS011;2826;51.354;9.588;2022-12-11T11:41:04;41.10;;;19.63;;
5608;SDS011;2826;51.354;9.588;2022-12-11T11:43:39;45.07;;;20.80;;
5608;SDS011;2826;51.354;9.588;2022-12-11T11:46:11;38.67;;;18.20;;
5608;SDS011;2826;51.354;9.588;2022-12-11T11:48:48;39.90;;;19.53;;
5608;SDS011;2826;51.354;9.588;2022-12-11T11:51:20;39.50;;;18.77;;
5608;SDS011;2826;51.354;9.588;2022-12-11T11:53:53;44.60;;;21.30;;
5608;SDS011;2826;51.354;9.588;2022-12-11T11:56:25;40.77;;;18.73;;
5608;SDS011;2826;51.354;9.588;2022-12-11T11:58:55;42.93;;;18.00;;
5608;SDS011;2826;51.354;9.588;2022-12-11T12:01:27;35.43;;;16.00;;
5608;SDS011;2826;51.354;9.588;2022-12-11T12:03:56;31.83;;;15.20;;
5608;SDS011;2826;51.354;9.588;2022-12-11T12:06:27;35.23;;;15.77;;
5608;SDS011;2826;51.354;9.588;2022-12-11T12:09:12;34.45;;;14.65;;
5608;SDS011;2826;51.354;9.588;2022-12-11T12:11:47;37.47;;;17.40;;
5608;SDS011;2826;51.354;9.588;2022-12-11T12:14:20;44.33;;;19.63;;
5608;SDS011;2826;51.354;9.588;2022-12-11T12:16:53;39.20;;;17.37;;
5608;SDS011;2826;51.354;9.588;2022-12-11T12:19:40;46.57;;;19.90;;
5608;SDS011;2826;51.354;9.588;2022-12-11T12:22:15;40.20;;;17.20;;
5608;SDS011;2826;51.354;9.588;2022-12-11T12:24:54;39.80;;;16.80;;
5608;SDS011;2826;51.354;9.588;2022-12-11T12:27:29;40.20;;;17.47;;
5608;SDS011;2826;51.354;9.588;2022-12-11T12:30:03;40.00;;;18.60;;
5608;SDS011;2826;51.354;9.588;2022-12-11T12:32:38;41.40;;;18.17;;
5608;SDS011;2826;51.354;9.588;2022-12-11T12:35:15;44.93;;;18.83;;
5608;SDS011;2826;51.354;9.588;2022-12-11T12:37:54;36.30;;;17.80;;
5608;SDS011;2826;51.354;9.588;2022-12-11T12:40:26;48.07;;;20.03;;
5608;SDS011;2826;51.354;9.588;2022-12-11T12:42:59;52.33;;;21.87;;
5608;SDS011;2826;51.354;9.588;2022-12-11T12:45:33;38.80;;;18.67;;
5608;SDS011;2826;51.354;9.588;2022-12-11T12:48:05;40.77;;;19.30;;
5608;SDS011;2826;51.354;9.588;2022-12-11T12:50:37;40.73;;;17.40;;
5608;SDS011;2826;51.354;9.588;2022-12-11T12:53:08;37.67;;;18.60;;
5608;SDS011;2826;51.354;9.588;2022-12-11T12:55:41;38.30;;;17.70;;
5608;SDS011;2826;51.354;9.588;2022-12-11T12:58:21;39.93;;;18.60;;
5608;SDS011;2826;51.354;9.588;2022-12-11T13:00:51;36.27;;;19.17;;
5608;SDS011;2826;51.354;9.588;2022-12-11T13:03:18;43.60;;;20.13;;
5608;SDS011;2826;51.354;9.588;2022-12-11T13:05:55;40.93;;;18.57;;
5608;SDS011;2826;51.354;9.588;2022-12-11T13:08:24;44.10;;;19.00;;
5608;SDS011;2826;51.354;9.588;2022-12-11T13:10:57;42.80;;;18.33;;
5608;SDS011;2826;51.354;9.588;2022-12-11T13:13:31;41.97;;;18.47;;
5608;SDS011;2826;51.354;9.588;2022-12-11T13:16:22;43.40;;;20.47;;
5608;SDS011;2826;51.354;9.588;2022-12-11T13:18:51;49.67;;;21.83;;
5608;SDS011;2826;51.354;9.588;2022-12-11T13:21:26;47.73;;;21.07;;
5608;SDS011;2826;51.354;9.588;2022-12-11T13:24:09;43.20;;;19.50;;
5608;SDS011;2826;51.354;9.588;2022-12-11T13:26:39;46.27;;;19.77;;
5608;SDS011;2826;51.354;9.588;2022-12-11T13:29:25;46.73;;;20.07;;
5608;SDS011;2826;51.354;9.588;2022-12-11T13:31:55;48.60;;;20.47;;
5608;SDS011;2826;51.354;9.588;2022-12-11T13:34:23;44.40;;;19.80;;
5608;SDS011;2826;51.354;9.588;2022-12-11T13:36:55;50.23;;;20.73;;
5608;SDS011;2826;51.354;9.588;2022-12-11T13:39:23;47.57;;;21.23;;
5608;SDS011;2826;51.354;9.588;2022-12-11T13:41:52;45.97;;;20.00;;
5608;SDS011;2826;51.354;9.588;2022-12-11T13:44:24;42.93;;;19.07;;
5608;SDS011;2826;51.354;9.588;2022-12-11T13:46:55;44.20;;;19.10;;
5608;SDS011;2826;51.354;9.588;2022-12-11T13:49:25;52.70;;;21.77;;
5608;SDS011;2826;51.354;9.588;2022-12-11T13:51:57;48.27;;;21.37;;
5608;SDS011;2826;51.354;9.588;2022-12-11T13:54:25;43.23;;;21.07;;
5608;SDS011;2826;51.354;9.588;2022-12-11T13:56:54;50.77;;;21.67;;
5608;SDS011;2826;51.354;9.588;2022-12-11T13:59:24;44.63;;;20.63;;
5608;SDS011;2826;51.354;9.588;2022-12-11T14:01:56;47.80;;;20.23;;
5608;SDS011;2826;51.354;9.588;2022-12-11T14:04:26;44.30;;;19.50;;
5608;SDS011;2826;51.354;9.588;2022-12-11T14:06:55;46.97;;;22.30;;
5608;SDS011;2826;51.354;9.588;2022-12-11T14:09:24;68.20;;;25.40;;
5608;SDS011;2826;51.354;9.588;2022-12-11T14:11:52;47.37;;;20.83;;
5608;SDS011;2826;51.354;9.588;2022-12-11T14:14:22;49.03;;;20.70;;
5608;SDS011;2826;51.354;9.588;2022-12-11T14:16:53;64.43;;;26.30;;
5608;SDS011;2826;51.354;9.588;2022-12-11T14:19:21;47.97;;;21.27;;
5608;SDS011;2826;51.354;9.588;2022-12-11T14:21:57;52.70;;;23.00;;
5608;SDS011;2826;51.354;9.588;2022-12-11T14:24:26;52.33;;;20.70;;
5608;SDS011;2826;51.354;9.588;2022-12-11T14:26:55;57.37;;;23.63;;
5608;SDS011;2826;51.354;9.588;2022-12-11T14:29:24;49.93;;;22.63;;
5608;SDS011;2826;51.354;9.588;2022-12-11T14:31:56;55.60;;;25.93;;
5608;SDS011;2826;51.354;9.588;2022-12-11T14:34:28;53.10;;;24.83;;
5608;SDS011;2826;51.354;9.588;2022-12-11T14:37:03;46.07;;;21.80;;
5608;SDS011;2826;51.354;9.588;2022-12-11T14:39:32;51.73;;;22.53;;
5608;SDS011;2826;51.354;9.588;2022-12-11T14:42:02;46.97;;;20.90;;
5608;SDS011;2826;51.354;9.588;2022-12-11T14:44:34;54.97;;;22.87;;
5608;SDS011;2826;51.354;9.588;2022-12-11T14:47:09;55.13;;;22.60;;
5608;SDS011;2826;51.354;9.588;2022-12-11T14:49:41;48.60;;;22.97;;
5608;SDS011;2826;51.354;9.588;2022-12-11T14:52:15;50.17;;;21.60;;
5608;SDS011;2826;51.354;9.588;2022-12-11T14:54:46;48.03;;;21.10;;
5608;SDS011;2826;51.354;9.588;2022-12-11T14:57:19;47.57;;;20.37;;
5608;SDS011;2826;51.354;9.588;2022-12-11T14:59:50;46.07;;;21.07;;
5608;SDS011;2826;51.354;9.588;2022-12-11T15:02:21;47.70;;;21.90;;
5608;SDS011;2826;51.354;9.588;2022-12-11T15:07:54;51.50;;;22.43;;
5608;SDS011;2826;51.354;9.588;2022-12-11T15:10:27;54.03;;;24.03;;
5608;SDS011;2826;51.354;9.588;2022-12-11T15:13:01;63.30;;;23.77;;
5608;SDS011;2826;51.354;9.588;2022-12-11T15:15:30;58.23;;;22.13;;